createdAt,value
2023-02-14T17:02:09.948Z,18.80
2023-02-14T17:03:42.756Z,26.40
2023-02-14T17:05:14.926Z,23.00
2023-02-14T17:06:54.909Z,25.60
2023-02-14T17:08:26.901Z,14.60
2023-02-14T17:10:06.623Z,22.00
2023-02-14T17:11:40.447Z,24.80
2023-02-14T17:13:12.539Z,17.40
2023-02-14T17:14:46.278Z,18.00
2023-02-14T17:16:18.267Z,23.20
2023-02-14T17:17:50.403Z,19.00
2023-02-14T17:19:22.345Z,22.40
2023-02-14T17:20:54.551Z,24.40
2023-02-14T17:22:26.517Z,22.00
2023-02-14T17:23:58.685Z,22.60
2023-02-14T17:25:30.766Z,22.80
2023-02-14T17:27:02.600Z,23.40
2023-02-14T17:28:34.545Z,25.20
2023-02-14T17:30:07.453Z,17.20
2023-02-14T17:31:39.529Z,21.80
2023-02-14T17:33:11.587Z,26.20
2023-02-14T17:34:43.577Z,25.20
2023-02-14T17:36:15.547Z,22.40
2023-02-14T17:37:47.494Z,21.60
2023-02-14T17:39:19.381Z,23.40
2023-02-14T17:40:51.285Z,21.00
2023-02-14T17:42:23.219Z,23.80
2023-02-14T17:43:55.532Z,16.00
2023-02-14T17:45:27.475Z,22.00
2023-02-14T17:46:59.495Z,23.00
2023-02-14T17:48:31.408Z,24.60
2023-02-14T17:50:04.075Z,19.40
2023-02-14T17:51:35.986Z,22.20
2023-02-14T17:53:07.990Z,12.80
2023-02-14T17:54:40.099Z,21.60
2023-02-14T17:56:20.289Z,28.80
2023-02-14T17:57:52.836Z,23.00
2023-02-14T17:59:24.693Z,21.80
2023-02-14T18:01:08.190Z,25.80
2023-02-14T18:02:40.523Z,26.20
2023-02-14T18:04:12.666Z,21.40
2023-02-14T18:05:44.645Z,21.20
2023-02-14T18:07:16.688Z,21.00
2023-02-14T18:08:53.802Z,22.20
2023-02-14T18:10:25.696Z,25.00
2023-02-14T18:11:57.814Z,23.60
2023-02-14T18:13:29.733Z,24.40
2023-02-14T18:15:01.676Z,25.40
2023-02-14T18:16:33.768Z,23.40
2023-02-14T18:18:06.441Z,22.60
2023-02-14T18:19:38.357Z,17.40
2023-02-14T18:21:12.575Z,25.60
2023-02-14T18:22:44.391Z,22.60
2023-02-14T18:24:16.508Z,14.00
2023-02-14T18:25:55.743Z,21.40
2023-02-14T18:27:27.748Z,26.40
2023-02-14T18:29:01.147Z,18.60
2023-02-14T18:30:33.147Z,24.80
2023-02-14T18:32:05.361Z,24.80
2023-02-14T18:33:37.400Z,22.40
2023-02-14T18:35:09.356Z,26.60
2023-02-14T18:36:41.982Z,31.60
2023-02-14T18:38:13.859Z,31.60
2023-02-14T18:39:45.951Z,38.60
2023-02-14T18:41:18.659Z,42.60
2023-02-14T18:42:50.711Z,47.40
2023-02-14T18:44:22.600Z,48.25
2023-02-14T18:45:54.881Z,54.00
2023-02-14T18:47:26.851Z,62.00
2023-02-14T18:48:59.127Z,73.50
2023-02-14T18:50:31.208Z,87.25
2023-02-14T18:52:05.073Z,78.75
2023-02-14T18:53:37.656Z,98.60
2023-02-14T18:55:09.900Z,97.40
2023-02-14T18:56:41.891Z,108.50
2023-02-14T18:58:13.850Z,114.75
2023-02-14T18:59:45.742Z,124.25
2023-02-14T19:01:22.118Z,120.75
2023-02-14T19:02:54.110Z,140.75
2023-02-14T19:04:26.247Z,134.50
2023-02-14T19:05:59.961Z,148.25
2023-02-14T19:07:32.150Z,151.00
2023-02-14T19:09:07.115Z,151.25
2023-02-14T19:10:39.028Z,149.50
2023-02-14T19:12:11.143Z,166.25
2023-02-14T19:13:51.007Z,169.50
2023-02-14T19:15:22.969Z,167.25
2023-02-14T19:16:55.525Z,159.50
2023-02-14T19:18:27.490Z,177.00
2023-02-14T19:19:59.972Z,165.00
2023-02-14T19:21:36.896Z,169.50
2023-02-14T19:23:08.849Z,175.25
2023-02-14T19:24:41.156Z,170.25
2023-02-14T19:26:17.290Z,164.75
2023-02-14T19:27:49.438Z,157.50
2023-02-14T19:29:21.936Z,179.00
2023-02-14T19:30:53.885Z,168.25
2023-02-14T19:32:26.223Z,162.25
2023-02-14T19:33:58.204Z,166.50
2023-02-14T19:35:30.188Z,150.50
2023-02-14T19:37:02.564Z,151.25
2023-02-14T19:38:34.954Z,160.50
2023-02-14T19:40:07.581Z,157.75
2023-02-14T19:41:40.254Z,161.00
2023-02-14T19:43:12.120Z,156.25
2023-02-14T19:44:46.100Z,148.00
2023-02-14T19:46:19.169Z,144.50
2023-02-14T19:47:51.061Z,137.00
2023-02-14T19:49:23.216Z,126.25
2023-02-14T19:50:55.160Z,124.25
2023-02-14T19:52:28.369Z,133.75
2023-02-14T19:54:01.226Z,133.50
2023-02-14T19:55:33.105Z,123.00
2023-02-14T19:57:05.020Z,125.50
2023-02-14T19:58:37.037Z,124.75
2023-02-14T20:00:11.391Z,131.25
2023-02-14T20:01:46.382Z,153.50
2023-02-14T20:03:18.434Z,138.75
2023-02-14T20:04:50.372Z,154.50
2023-02-14T20:06:22.744Z,141.00
2023-02-14T20:07:55.059Z,143.00
2023-02-14T20:09:27.166Z,149.00
2023-02-14T20:10:59.386Z,160.50
2023-02-14T20:12:31.489Z,158.25
2023-02-14T20:14:03.461Z,150.75
2023-02-14T20:15:35.546Z,152.50
2023-02-14T20:17:08.015Z,165.75
2023-02-14T20:18:39.961Z,154.25
2023-02-14T20:20:13.909Z,159.75
2023-02-14T20:21:47.114Z,151.25
2023-02-14T20:23:19.130Z,148.50
2023-02-14T20:24:51.084Z,150.75
2023-02-14T20:26:23.004Z,148.50
2023-02-14T20:27:55.047Z,165.25
2023-02-14T20:29:26.920Z,171.00
2023-02-14T20:30:58.988Z,173.50
2023-02-14T20:32:31.060Z,168.00
2023-02-14T20:34:03.042Z,164.00
2023-02-14T20:35:39.603Z,176.75
2023-02-14T20:37:11.550Z,180.75
2023-02-14T20:38:43.413Z,180.50
2023-02-14T20:40:16.388Z,172.50
2023-02-14T20:41:50.402Z,178.25
2023-02-14T20:43:24.444Z,167.25
2023-02-14T20:44:56.342Z,183.50
2023-02-14T20:46:29.200Z,186.00
2023-02-14T20:48:04.299Z,167.00
2023-02-14T20:49:36.400Z,172.25
2023-02-14T20:51:15.911Z,177.50
2023-02-14T20:52:47.957Z,168.00
2023-02-14T20:54:20.732Z,164.75
2023-02-14T20:55:52.894Z,167.75
2023-02-14T20:57:24.916Z,156.25
2023-02-14T20:58:56.840Z,155.75
2023-02-14T21:00:31.846Z,156.25
2023-02-14T21:02:03.924Z,170.25
2023-02-14T21:03:38.757Z,162.25
2023-02-14T21:05:10.748Z,168.00
2023-02-14T21:06:42.613Z,167.75
2023-02-14T21:08:14.685Z,164.75
2023-02-14T21:09:46.606Z,170.50
2023-02-14T21:11:19.930Z,169.00
2023-02-14T21:12:53.806Z,184.50
2023-02-14T21:14:25.766Z,165.75
2023-02-14T21:16:08.705Z,172.75
2023-02-14T21:17:40.746Z,172.00
2023-02-14T21:19:12.797Z,154.00
2023-02-14T21:20:44.745Z,168.00
2023-02-14T21:22:17.153Z,164.75
2023-02-14T21:23:49.979Z,160.00
2023-02-14T21:25:24.176Z,159.25
2023-02-14T21:26:57.225Z,160.00
2023-02-14T21:28:29.246Z,165.00
2023-02-14T21:30:01.300Z,155.75
2023-02-14T21:31:33.397Z,164.50
2023-02-14T21:33:05.306Z,158.00
2023-02-14T21:34:37.221Z,152.00
2023-02-14T21:36:13.443Z,150.00
2023-02-14T21:37:45.305Z,143.25
2023-02-14T21:39:17.579Z,163.75
2023-02-14T21:40:49.611Z,151.00
2023-02-14T21:42:21.622Z,136.25
2023-02-14T21:43:53.941Z,130.00
2023-02-14T21:45:44.400Z,141.75
2023-02-14T21:47:16.280Z,142.25
2023-02-14T21:49:06.603Z,142.25
2023-02-14T21:50:38.560Z,141.00
2023-02-14T21:52:10.470Z,145.00
2023-02-14T21:53:42.977Z,146.75
2023-02-14T21:55:14.989Z,147.50
2023-02-14T21:56:46.926Z,151.25
2023-02-14T21:58:18.913Z,131.00
2023-02-14T21:59:50.787Z,137.50
2023-02-14T22:01:31.142Z,136.00
2023-02-14T22:03:03.066Z,167.75
2023-02-14T22:04:35.693Z,179.75
2023-02-14T22:06:07.766Z,161.25
2023-02-14T22:07:39.715Z,143.00
2023-02-14T22:09:13.322Z,140.25
2023-02-14T22:10:45.288Z,141.25
2023-02-14T22:12:17.253Z,126.00
2023-02-14T22:13:49.118Z,123.50
2023-02-14T22:15:21.016Z,121.75
2023-02-14T22:16:52.943Z,123.25
2023-02-14T22:18:24.885Z,125.50
2023-02-14T22:19:56.701Z,119.00
2023-02-14T22:21:28.742Z,118.00
2023-02-14T22:23:00.655Z,124.50
2023-02-14T22:24:32.589Z,114.50
2023-02-14T22:26:24.374Z,110.75
2023-02-14T22:27:56.306Z,106.50
2023-02-14T22:29:29.184Z,100.40
2023-02-14T22:31:01.315Z,101.20
2023-02-14T22:32:33.527Z,97.60
2023-02-14T22:34:06.209Z,100.20
2023-02-14T22:35:39.129Z,93.60
2023-02-14T22:37:11.103Z,91.20
2023-02-14T22:38:43.090Z,88.00
2023-02-14T22:40:14.929Z,90.50
2023-02-14T22:41:47.729Z,87.75
2023-02-14T22:43:19.634Z,83.50
2023-02-14T22:44:51.514Z,89.50
2023-02-14T22:46:25.077Z,80.00
2023-02-14T22:47:57.020Z,76.75
2023-02-14T22:49:29.001Z,82.75
2023-02-14T22:51:28.127Z,82.00
2023-02-14T22:53:00.045Z,81.50
2023-02-14T22:54:31.935Z,68.00
2023-02-14T22:56:16.492Z,83.75
2023-02-14T22:57:48.354Z,81.50
2023-02-14T22:59:24.706Z,72.50
2023-02-14T23:00:56.551Z,66.00
2023-02-14T23:02:28.557Z,63.25
2023-02-14T23:04:01.178Z,58.75
2023-02-14T23:05:33.098Z,57.00
2023-02-14T23:07:05.016Z,53.75
2023-02-14T23:08:43.668Z,57.50
2023-02-14T23:10:15.627Z,69.75
2023-02-14T23:11:47.659Z,74.25
2023-02-14T23:13:38.083Z,80.50
2023-02-14T23:15:29.206Z,84.25
2023-02-14T23:17:16.316Z,80.75
2023-02-14T23:19:07.035Z,83.25
2023-02-14T23:20:57.635Z,85.00
2023-02-14T23:22:31.377Z,88.00
2023-02-14T23:24:03.410Z,224.33
2023-02-14T23:25:35.310Z,154.00
2023-02-14T23:27:07.503Z,152.00
2023-02-14T23:28:39.380Z,144.25
2023-02-14T23:30:17.665Z,116.25
2023-02-14T23:31:49.620Z,131.50
2023-02-14T23:33:21.622Z,137.50
2023-02-14T23:34:53.464Z,125.75
